AZU2903 SBRJ-SBKP
Flight info
| Callsign | AZU2903 |
|---|---|
| Flight time | 0h 44m |
| Altitude | 32000 |
| Route | ESORU UZ10 EDMUS |
| Aircraft | A319/M-SDE3FGHIRWY/LB1 |
Departure
| Time | 2026-05-09 00:17 |
|---|---|
| Airport | Santos Dumont Airport (SBRJ) |
Arrival
| Time | 2026-05-09 01:01 |
|---|---|
| Airport | Viracopos International Airport (SBKP) |
| Time | Latitude | Longitude | Altitude | Speed | Heading |
|---|---|---|---|---|---|
| 2026-05-08 23:56 | -22.91282 | -43.16579 | 22 ft | 0 kts | 268° |
| 2026-05-09 00:08 | -22.91281 | -43.16577 | -5 ft | 1 kts | 268° |
| 2026-05-09 00:08 | -22.91280 | -43.16557 | 22 ft | 3 kts | 262° |
| 2026-05-09 00:09 | -22.91277 | -43.16537 | 23 ft | 3 kts | 250° |
| 2026-05-09 00:09 | -22.91268 | -43.16518 | 25 ft | 3 kts | 220° |
| 2026-05-09 00:09 | -22.91256 | -43.16510 | 26 ft | 1 kts | 178° |
| 2026-05-09 00:09 | -22.91254 | -43.16510 | 26 ft | 0 kts | 176° |
| 2026-05-09 00:13 | -22.91260 | -43.16510 | 24 ft | 2 kts | 175° |
| 2026-05-09 00:13 | -22.91319 | -43.16506 | 22 ft | 16 kts | 176° |
| 2026-05-09 00:14 | -22.91419 | -43.16484 | 23 ft | 14 kts | 144° |
| 2026-05-09 00:14 | -22.91476 | -43.16426 | 22 ft | 0 kts | 138° |
| 2026-05-09 00:15 | -22.91498 | -43.16404 | 21 ft | 10 kts | 137° |
| 2026-05-09 00:15 | -22.91551 | -43.16350 | 20 ft | 10 kts | 137° |
| 2026-05-09 00:15 | -22.91601 | -43.16300 | 20 ft | 9 kts | 137° |
| 2026-05-09 00:16 | -22.91635 | -43.16258 | 20 ft | 5 kts | 90° |
| 2026-05-09 00:16 | -22.91611 | -43.16247 | 20 ft | 3 kts | 7° |
| 2026-05-09 00:16 | -22.91483 | -43.16255 | 20 ft | 55 kts | 356° |
| 2026-05-09 00:16 | -22.90808 | -43.16298 | 27 ft | 136 kts | 356° |
| 2026-05-09 00:17 | -22.89749 | -43.16373 | 568 ft | 157 kts | 359° |
| 2026-05-09 00:17 | -22.88700 | -43.16108 | 1413 ft | 158 kts | 31° |
| 2026-05-09 00:17 | -22.87950 | -43.15209 | 1875 ft | 174 kts | 65° |
| 2026-05-09 00:17 | -22.87807 | -43.13818 | 2159 ft | 201 kts | 91° |
| 2026-05-09 00:18 | -22.87930 | -43.12225 | 2449 ft | 225 kts | 92° |
| 2026-05-09 00:18 | -22.88064 | -43.10485 | 2923 ft | 242 kts | 91° |
| 2026-05-09 00:18 | -22.88205 | -43.08641 | 3658 ft | 248 kts | 91° |
| 2026-05-09 00:18 | -22.88475 | -43.06763 | 4393 ft | 259 kts | 106° |
| 2026-05-09 00:19 | -22.89427 | -43.05053 | 4970 ft | 279 kts | 135° |
| 2026-05-09 00:19 | -22.91149 | -43.03998 | 5515 ft | 293 kts | 168° |
| 2026-05-09 00:19 | -22.93177 | -43.03911 | 6298 ft | 293 kts | 194° |
| 2026-05-09 00:19 | -22.95056 | -43.04698 | 7095 ft | 290 kts | 217° |
| 2026-05-09 00:20 | -22.96642 | -43.06053 | 7750 ft | 294 kts | 223° |
| 2026-05-09 00:20 | -22.98225 | -43.07482 | 8205 ft | 297 kts | 223° |
| 2026-05-09 00:20 | -22.99816 | -43.08916 | 8578 ft | 298 kts | 223° |
| 2026-05-09 00:20 | -23.01278 | -43.10453 | 8942 ft | 296 kts | 237° |
| 2026-05-09 00:21 | -23.02169 | -43.12434 | 9319 ft | 292 kts | 259° |
| 2026-05-09 00:21 | -23.02361 | -43.14610 | 9686 ft | 291 kts | 273° |
| 2026-05-09 00:21 | -23.02379 | -43.16821 | 10054 ft | 297 kts | 273° |
| 2026-05-09 00:21 | -23.02391 | -43.19132 | 10404 ft | 315 kts | 273° |
| 2026-05-09 00:22 | -23.02404 | -43.21579 | 10759 ft | 333 kts | 272° |
| 2026-05-09 00:22 | -23.02422 | -43.24150 | 11120 ft | 348 kts | 272° |
| 2026-05-09 00:22 | -23.02447 | -43.26811 | 11478 ft | 356 kts | 272° |
| 2026-05-09 00:22 | -23.02466 | -43.28593 | 11718 ft | 358 kts | 272° |
| 2026-05-09 00:23 | -23.02500 | -43.32187 | 12204 ft | 361 kts | 272° |
| 2026-05-09 00:23 | -23.02525 | -43.34915 | 12574 ft | 363 kts | 272° |
| 2026-05-09 00:23 | -23.02550 | -43.37660 | 12951 ft | 365 kts | 272° |
| 2026-05-09 00:23 | -23.02575 | -43.40423 | 13332 ft | 367 kts | 272° |
| 2026-05-09 00:24 | -23.02600 | -43.43198 | 13714 ft | 369 kts | 272° |
| 2026-05-09 00:24 | -23.02615 | -43.45051 | 13948 ft | 371 kts | 272° |
| 2026-05-09 00:24 | -23.02637 | -43.47864 | 14292 ft | 374 kts | 272° |
| 2026-05-09 00:24 | -23.02657 | -43.50694 | 14641 ft | 375 kts | 272° |
| 2026-05-09 00:25 | -23.02676 | -43.53530 | 14992 ft | 377 kts | 272° |
| 2026-05-09 00:25 | -23.02696 | -43.56385 | 15431 ft | 380 kts | 272° |
| 2026-05-09 00:25 | -23.02715 | -43.59259 | 16053 ft | 382 kts | 272° |
| 2026-05-09 00:25 | -23.02738 | -43.63091 | 16838 ft | 385 kts | 273° |
| 2026-05-09 00:26 | -23.02750 | -43.65058 | 17215 ft | 387 kts | 273° |
| 2026-05-09 00:26 | -23.02766 | -43.67984 | 17764 ft | 389 kts | 273° |
| 2026-05-09 00:26 | -23.02783 | -43.70883 | 18291 ft | 392 kts | 273° |
| 2026-05-09 00:26 | -23.02800 | -43.73863 | 18756 ft | 394 kts | 273° |
| 2026-05-09 00:27 | -23.02818 | -43.76840 | 19233 ft | 396 kts | 272° |
| 2026-05-09 00:27 | -23.02836 | -43.79834 | 19714 ft | 397 kts | 272° |
| 2026-05-09 00:27 | -23.02853 | -43.82837 | 20202 ft | 399 kts | 272° |
| 2026-05-09 00:27 | -23.02872 | -43.85848 | 20681 ft | 400 kts | 272° |
| 2026-05-09 00:28 | -23.02890 | -43.88871 | 21157 ft | 401 kts | 272° |
| 2026-05-09 00:28 | -23.02907 | -43.91905 | 21633 ft | 403 kts | 272° |
| 2026-05-09 00:28 | -23.02922 | -43.94949 | 22101 ft | 404 kts | 272° |
| 2026-05-09 00:28 | -23.02934 | -43.97961 | 22559 ft | 405 kts | 272° |
| 2026-05-09 00:29 | -23.02946 | -44.01026 | 23021 ft | 407 kts | 272° |
| 2026-05-09 00:29 | -23.02959 | -44.04102 | 23487 ft | 408 kts | 272° |
| 2026-05-09 00:29 | -23.02970 | -44.07186 | 23891 ft | 409 kts | 272° |
| 2026-05-09 00:29 | -23.02981 | -44.10278 | 24259 ft | 410 kts | 272° |
| 2026-05-09 00:30 | -23.02993 | -44.13380 | 24601 ft | 412 kts | 272° |
| 2026-05-09 00:30 | -23.03003 | -44.16497 | 24944 ft | 413 kts | 272° |
| 2026-05-09 00:30 | -23.03010 | -44.19620 | 25302 ft | 415 kts | 272° |
| 2026-05-09 00:30 | -23.03019 | -44.22756 | 25629 ft | 416 kts | 272° |
| 2026-05-09 00:31 | -23.03027 | -44.25902 | 25999 ft | 417 kts | 272° |
| 2026-05-09 00:31 | -23.03035 | -44.29013 | 26365 ft | 418 kts | 272° |
| 2026-05-09 00:31 | -23.03043 | -44.32174 | 26728 ft | 420 kts | 272° |
| 2026-05-09 00:31 | -23.03050 | -44.35353 | 27073 ft | 422 kts | 272° |
| 2026-05-09 00:32 | -23.03057 | -44.38538 | 27402 ft | 423 kts | 272° |
| 2026-05-09 00:32 | -23.03064 | -44.41741 | 27727 ft | 425 kts | 272° |
| 2026-05-09 00:32 | -23.03070 | -44.44960 | 28037 ft | 427 kts | 272° |
| 2026-05-09 00:32 | -23.03075 | -44.48188 | 28352 ft | 429 kts | 272° |
| 2026-05-09 00:33 | -23.03081 | -44.51435 | 28655 ft | 431 kts | 272° |
| 2026-05-09 00:33 | -23.03086 | -44.54689 | 28979 ft | 432 kts | 272° |
| 2026-05-09 00:33 | -23.03089 | -44.57918 | 29256 ft | 434 kts | 272° |
| 2026-05-09 00:33 | -23.03088 | -44.61198 | 29552 ft | 436 kts | 272° |
| 2026-05-09 00:34 | -23.03084 | -44.64491 | 29844 ft | 437 kts | 272° |
| 2026-05-09 00:34 | -23.03234 | -44.67777 | 30241 ft | 437 kts | 265° |
| 2026-05-09 00:34 | -23.03837 | -44.71009 | 30604 ft | 437 kts | 259° |
| 2026-05-09 00:34 | -23.04566 | -44.74207 | 30909 ft | 436 kts | 259° |
| 2026-05-09 00:35 | -23.05289 | -44.77397 | 31282 ft | 434 kts | 259° |
| 2026-05-09 00:35 | -23.06007 | -44.80570 | 31675 ft | 432 kts | 259° |
| 2026-05-09 00:35 | -23.06718 | -44.83729 | 31955 ft | 430 kts | 259° |
| 2026-05-09 00:36 | -23.08122 | -44.89999 | 32044 ft | 425 kts | 259° |
| 2026-05-09 00:36 | -23.09513 | -44.96226 | 32052 ft | 424 kts | 259° |
| 2026-05-09 00:37 | -23.10892 | -45.02403 | 32051 ft | 424 kts | 259° |
| 2026-05-09 00:37 | -23.12280 | -45.08627 | 32051 ft | 424 kts | 259° |
| 2026-05-09 00:38 | -23.13664 | -45.14852 | 32052 ft | 424 kts | 259° |
| 2026-05-09 00:38 | -23.14358 | -45.17969 | 31894 ft | 425 kts | 259° |
| 2026-05-09 00:38 | -23.15052 | -45.21085 | 31655 ft | 425 kts | 259° |
| 2026-05-09 00:38 | -23.15745 | -45.24204 | 31413 ft | 425 kts | 259° |
| 2026-05-09 00:39 | -23.16359 | -45.27300 | 31175 ft | 424 kts | 266° |
| 2026-05-09 00:39 | -23.16414 | -45.30487 | 30939 ft | 422 kts | 274° |
| 2026-05-09 00:39 | -23.16329 | -45.33672 | 30700 ft | 424 kts | 274° |
| 2026-05-09 00:39 | -23.16240 | -45.36882 | 30465 ft | 425 kts | 274° |
| 2026-05-09 00:40 | -23.16148 | -45.40095 | 30238 ft | 426 kts | 274° |
| 2026-05-09 00:40 | -23.16056 | -45.43311 | 29992 ft | 427 kts | 274° |
| 2026-05-09 00:40 | -23.15966 | -45.46538 | 29717 ft | 428 kts | 274° |
| 2026-05-09 00:41 | -23.15781 | -45.52970 | 29179 ft | 430 kts | 274° |
| 2026-05-09 00:41 | -23.15685 | -45.56222 | 28915 ft | 430 kts | 274° |
| 2026-05-09 00:41 | -23.15589 | -45.59465 | 28394 ft | 427 kts | 274° |
| 2026-05-09 00:41 | -23.15495 | -45.62671 | 27731 ft | 422 kts | 274° |
| 2026-05-09 00:42 | -23.15404 | -45.65837 | 27098 ft | 417 kts | 274° |
| 2026-05-09 00:42 | -23.15313 | -45.68970 | 26473 ft | 413 kts | 274° |
| 2026-05-09 00:42 | -23.15222 | -45.72073 | 25858 ft | 409 kts | 274° |
| 2026-05-09 00:42 | -23.15131 | -45.75150 | 25255 ft | 406 kts | 274° |
| 2026-05-09 00:43 | -23.15041 | -45.78206 | 24658 ft | 403 kts | 274° |
| 2026-05-09 00:43 | -23.14949 | -45.81239 | 24053 ft | 400 kts | 274° |
| 2026-05-09 00:43 | -23.14856 | -45.84212 | 23447 ft | 398 kts | 274° |
| 2026-05-09 00:43 | -23.14761 | -45.87204 | 22819 ft | 394 kts | 274° |
| 2026-05-09 00:44 | -23.14669 | -45.90163 | 22284 ft | 389 kts | 275° |
| 2026-05-09 00:44 | -23.14579 | -45.93086 | 21755 ft | 385 kts | 275° |
| 2026-05-09 00:44 | -23.14490 | -45.95971 | 21271 ft | 380 kts | 275° |
| 2026-05-09 00:44 | -23.14398 | -45.98825 | 20783 ft | 376 kts | 275° |
| 2026-05-09 00:45 | -23.14306 | -46.01644 | 20324 ft | 371 kts | 275° |
| 2026-05-09 00:45 | -23.14215 | -46.04436 | 19875 ft | 368 kts | 275° |
| 2026-05-09 00:45 | -23.14125 | -46.07193 | 19429 ft | 364 kts | 275° |
| 2026-05-09 00:45 | -23.14037 | -46.09936 | 18984 ft | 361 kts | 275° |
| 2026-05-09 00:46 | -23.13948 | -46.12622 | 18549 ft | 360 kts | 275° |
| 2026-05-09 00:46 | -23.13855 | -46.15330 | 18067 ft | 359 kts | 275° |
| 2026-05-09 00:46 | -23.13764 | -46.18027 | 17596 ft | 356 kts | 275° |
| 2026-05-09 00:46 | -23.13673 | -46.20709 | 17144 ft | 354 kts | 275° |
| 2026-05-09 00:47 | -23.13585 | -46.23374 | 16677 ft | 352 kts | 275° |
| 2026-05-09 00:47 | -23.13497 | -46.26027 | 16203 ft | 351 kts | 275° |
| 2026-05-09 00:47 | -23.13409 | -46.28669 | 15734 ft | 349 kts | 275° |
| 2026-05-09 00:47 | -23.13320 | -46.31306 | 15246 ft | 349 kts | 275° |
| 2026-05-09 00:48 | -23.13232 | -46.33934 | 14762 ft | 348 kts | 275° |
| 2026-05-09 00:48 | -23.13144 | -46.36559 | 14268 ft | 347 kts | 275° |
| 2026-05-09 00:48 | -23.13057 | -46.39146 | 13744 ft | 348 kts | 275° |
| 2026-05-09 00:48 | -23.12965 | -46.41772 | 13179 ft | 347 kts | 275° |
| 2026-05-09 00:49 | -23.12871 | -46.44382 | 12676 ft | 345 kts | 275° |
| 2026-05-09 00:49 | -23.12778 | -46.46972 | 12168 ft | 342 kts | 275° |
| 2026-05-09 00:49 | -23.12687 | -46.49544 | 11653 ft | 340 kts | 275° |
| 2026-05-09 00:49 | -23.12600 | -46.52108 | 11131 ft | 338 kts | 275° |
| 2026-05-09 00:50 | -23.12513 | -46.54650 | 10720 ft | 333 kts | 275° |
| 2026-05-09 00:50 | -23.12430 | -46.57108 | 10597 ft | 319 kts | 276° |
| 2026-05-09 00:50 | -23.12349 | -46.59473 | 10479 ft | 307 kts | 276° |
| 2026-05-09 00:50 | -23.12277 | -46.61744 | 10362 ft | 296 kts | 274° |
| 2026-05-09 00:51 | -23.12471 | -46.63919 | 10188 ft | 291 kts | 267° |
| 2026-05-09 00:51 | -23.12736 | -46.66067 | 9957 ft | 284 kts | 267° |
| 2026-05-09 00:51 | -23.12998 | -46.68181 | 9835 ft | 282 kts | 268° |
| 2026-05-09 00:51 | -23.13257 | -46.70292 | 9706 ft | 282 kts | 267° |
| 2026-05-09 00:52 | -23.13518 | -46.72407 | 9574 ft | 282 kts | 267° |
| 2026-05-09 00:52 | -23.13779 | -46.74512 | 9445 ft | 281 kts | 267° |
| 2026-05-09 00:52 | -23.14036 | -46.76606 | 9314 ft | 280 kts | 267° |
| 2026-05-09 00:52 | -23.14291 | -46.78703 | 9114 ft | 277 kts | 267° |
| 2026-05-09 00:53 | -23.14544 | -46.80745 | 8774 ft | 267 kts | 267° |
| 2026-05-09 00:53 | -23.14789 | -46.82699 | 8425 ft | 255 kts | 267° |
| 2026-05-09 00:53 | -23.15022 | -46.84571 | 8096 ft | 246 kts | 267° |
| 2026-05-09 00:53 | -23.15243 | -46.86355 | 7761 ft | 239 kts | 268° |
| 2026-05-09 00:54 | -23.15462 | -46.88120 | 7448 ft | 232 kts | 268° |
| 2026-05-09 00:54 | -23.15673 | -46.89835 | 7144 ft | 225 kts | 269° |
| 2026-05-09 00:54 | -23.15646 | -46.91460 | 6885 ft | 206 kts | 285° |
| 2026-05-09 00:54 | -23.15256 | -46.92873 | 6601 ft | 190 kts | 298° |
| 2026-05-09 00:55 | -23.14601 | -46.94063 | 6348 ft | 176 kts | 311° |
| 2026-05-09 00:55 | -23.13863 | -46.95085 | 6105 ft | 167 kts | 311° |
| 2026-05-09 00:55 | -23.13167 | -46.96057 | 5888 ft | 160 kts | 311° |
| 2026-05-09 00:55 | -23.12489 | -46.97006 | 5680 ft | 158 kts | 311° |
| 2026-05-09 00:56 | -23.11824 | -46.97940 | 5464 ft | 155 kts | 311° |
| 2026-05-09 00:56 | -23.11174 | -46.98853 | 5254 ft | 154 kts | 311° |
| 2026-05-09 00:56 | -23.10524 | -46.99766 | 5049 ft | 152 kts | 311° |
| 2026-05-09 00:56 | -23.09878 | -47.00671 | 4846 ft | 151 kts | 311° |
| 2026-05-09 00:57 | -23.09238 | -47.01567 | 4644 ft | 150 kts | 311° |
| 2026-05-09 00:57 | -23.08601 | -47.02456 | 4441 ft | 149 kts | 311° |
| 2026-05-09 00:57 | -23.07970 | -47.03339 | 4254 ft | 147 kts | 311° |
| 2026-05-09 00:57 | -23.07348 | -47.04211 | 4051 ft | 146 kts | 311° |
| 2026-05-09 00:58 | -23.06732 | -47.05074 | 3858 ft | 144 kts | 311° |
| 2026-05-09 00:58 | -23.06124 | -47.05923 | 3690 ft | 142 kts | 311° |
| 2026-05-09 00:58 | -23.05517 | -47.06771 | 3498 ft | 142 kts | 310° |
| 2026-05-09 00:58 | -23.04924 | -47.07612 | 3300 ft | 138 kts | 310° |
| 2026-05-09 00:59 | -23.04350 | -47.08426 | 3118 ft | 137 kts | 310° |
| 2026-05-09 00:59 | -23.03769 | -47.09251 | 2905 ft | 141 kts | 309° |
| 2026-05-09 00:59 | -23.03167 | -47.10116 | 2708 ft | 145 kts | 310° |
| 2026-05-09 00:59 | -23.02546 | -47.10997 | 2511 ft | 147 kts | 311° |
| 2026-05-09 01:00 | -23.01891 | -47.11854 | 2328 ft | 148 kts | 311° |
| 2026-05-09 01:00 | -23.01266 | -47.12719 | 2168 ft | 141 kts | 310° |
| 2026-05-09 01:00 | -23.00737 | -47.13453 | 2152 ft | 102 kts | 307° |
| 2026-05-09 01:00 | -23.00418 | -47.13897 | 2151 ft | 62 kts | 308° |
| 2026-05-09 01:01 | -23.00169 | -47.14249 | 2151 ft | 56 kts | 308° |
| 2026-05-09 01:01 | -22.99960 | -47.14544 | 2152 ft | 21 kts | 294° |
| 2026-05-09 01:01 | -22.99984 | -47.14646 | 2155 ft | 14 kts | 233° |
| 2026-05-09 01:01 | -23.00025 | -47.14687 | 2152 ft | 6 kts | 218° |
| 2026-05-09 01:02 | -23.00053 | -47.14712 | 2151 ft | 5 kts | 220° |
| 2026-05-09 01:02 | -23.00093 | -47.14733 | 2157 ft | 11 kts | 195° |
| 2026-05-09 01:02 | -23.00131 | -47.14738 | 2157 ft | 0 kts | 192° |
| 2026-05-09 01:03 | -23.00141 | -47.14740 | 2156 ft | 0 kts | 184° |